sensor_id;sensor_type;location;lat;lon;timestamp;P1;durP1;ratioP1;P2;durP2;ratioP2
62423;SDS011;48463;43.604;3.872;2023-06-10T00:01:37;21.38;;;13.65;;
62423;SDS011;48463;43.604;3.872;2023-06-10T00:04:03;22.30;;;12.32;;
62423;SDS011;48463;43.604;3.872;2023-06-10T00:06:29;19.92;;;13.18;;
62423;SDS011;48463;43.604;3.872;2023-06-10T00:09:00;24.85;;;13.27;;
62423;SDS011;48463;43.604;3.872;2023-06-10T00:11:35;19.58;;;14.07;;
62423;SDS011;48463;43.604;3.872;2023-06-10T00:14:01;21.33;;;12.68;;
62423;SDS011;48463;43.604;3.872;2023-06-10T00:16:27;23.52;;;12.32;;
62423;SDS011;48463;43.604;3.872;2023-06-10T00:18:53;24.77;;;12.27;;
62423;SDS011;48463;43.604;3.872;2023-06-10T00:21:29;18.90;;;13.68;;
62423;SDS011;48463;43.604;3.872;2023-06-10T00:24:05;17.98;;;13.13;;
62423;SDS011;48463;43.604;3.872;2023-06-10T00:26:40;19.92;;;11.85;;
62423;SDS011;48463;43.604;3.872;2023-06-10T00:29:06;18.55;;;11.85;;
62423;SDS011;48463;43.604;3.872;2023-06-10T00:31:37;24.15;;;13.75;;
62423;SDS011;48463;43.604;3.872;2023-06-10T00:34:03;29.95;;;15.68;;
62423;SDS011;48463;43.604;3.872;2023-06-10T00:36:29;26.75;;;15.48;;
62423;SDS011;48463;43.604;3.872;2023-06-10T00:38:55;20.75;;;14.38;;
62423;SDS011;48463;43.604;3.872;2023-06-10T00:41:22;22.55;;;13.68;;
62423;SDS011;48463;43.604;3.872;2023-06-10T00:43:48;21.08;;;13.48;;
62423;SDS011;48463;43.604;3.872;2023-06-10T00:46:14;21.73;;;13.02;;
62423;SDS011;48463;43.604;3.872;2023-06-10T00:48:40;21.92;;;14.75;;
62423;SDS011;48463;43.604;3.872;2023-06-10T00:51:08;22.13;;;17.02;;
62423;SDS011;48463;43.604;3.872;2023-06-10T00:53:36;23.88;;;12.90;;
62423;SDS011;48463;43.604;3.872;2023-06-10T00:56:04;23.73;;;13.93;;
62423;SDS011;48463;43.604;3.872;2023-06-10T00:58:30;25.60;;;14.20;;
62423;SDS011;48463;43.604;3.872;2023-06-10T01:00:56;28.35;;;15.02;;
62423;SDS011;48463;43.604;3.872;2023-06-10T01:03:22;22.45;;;15.65;;
62423;SDS011;48463;43.604;3.872;2023-06-10T01:05:56;26.20;;;14.63;;
62423;SDS011;48463;43.604;3.872;2023-06-10T01:14:21;23.08;;;14.50;;
62423;SDS011;48463;43.604;3.872;2023-06-10T01:16:48;21.63;;;14.90;;
62423;SDS011;48463;43.604;3.872;2023-06-10T01:19:14;24.30;;;14.38;;
62423;SDS011;48463;43.604;3.872;2023-06-10T01:21:42;23.63;;;15.77;;
62423;SDS011;48463;43.604;3.872;2023-06-10T01:24:14;27.30;;;14.52;;
62423;SDS011;48463;43.604;3.872;2023-06-10T01:26:43;21.33;;;13.80;;
62423;SDS011;48463;43.604;3.872;2023-06-10T01:29:11;24.02;;;14.52;;
62423;SDS011;48463;43.604;3.872;2023-06-10T01:31:49;21.00;;;14.57;;
62423;SDS011;48463;43.604;3.872;2023-06-10T01:34:29;19.75;;;13.85;;
62423;SDS011;48463;43.604;3.872;2023-06-10T01:36:57;23.23;;;15.75;;
62423;SDS011;48463;43.604;3.872;2023-06-10T01:39:24;23.38;;;14.95;;
62423;SDS011;48463;43.604;3.872;2023-06-10T01:41:51;22.00;;;18.10;;
62423;SDS011;48463;43.604;3.872;2023-06-10T01:44:18;22.27;;;14.63;;
62423;SDS011;48463;43.604;3.872;2023-06-10T01:46:45;24.45;;;14.48;;
62423;SDS011;48463;43.604;3.872;2023-06-10T01:49:11;25.25;;;15.65;;
62423;SDS011;48463;43.604;3.872;2023-06-10T01:51:37;21.38;;;14.40;;
62423;SDS011;48463;43.604;3.872;2023-06-10T01:54:03;19.67;;;13.77;;
62423;SDS011;48463;43.604;3.872;2023-06-10T01:56:28;22.38;;;15.40;;
62423;SDS011;48463;43.604;3.872;2023-06-10T01:58:54;29.52;;;16.25;;
62423;SDS011;48463;43.604;3.872;2023-06-10T02:01:24;20.95;;;15.25;;
62423;SDS011;48463;43.604;3.872;2023-06-10T02:03:50;18.25;;;13.70;;
62423;SDS011;48463;43.604;3.872;2023-06-10T02:06:16;21.30;;;13.77;;
62423;SDS011;48463;43.604;3.872;2023-06-10T02:08:42;20.00;;;13.82;;
62423;SDS011;48463;43.604;3.872;2023-06-10T02:11:07;26.75;;;15.13;;
62423;SDS011;48463;43.604;3.872;2023-06-10T02:13:33;22.88;;;14.68;;
62423;SDS011;48463;43.604;3.872;2023-06-10T02:15:59;24.65;;;14.95;;
62423;SDS011;48463;43.604;3.872;2023-06-10T02:18:26;26.10;;;15.52;;
62423;SDS011;48463;43.604;3.872;2023-06-10T02:20:53;20.52;;;14.85;;
62423;SDS011;48463;43.604;3.872;2023-06-10T02:23:18;17.50;;;13.05;;
62423;SDS011;48463;43.604;3.872;2023-06-10T02:25:44;22.73;;;14.10;;
62423;SDS011;48463;43.604;3.872;2023-06-10T02:28:12;24.52;;;14.40;;
62423;SDS011;48463;43.604;3.872;2023-06-10T02:30:41;23.50;;;14.27;;
62423;SDS011;48463;43.604;3.872;2023-06-10T02:33:07;24.48;;;13.48;;
62423;SDS011;48463;43.604;3.872;2023-06-10T02:35:37;18.67;;;13.40;;
62423;SDS011;48463;43.604;3.872;2023-06-10T02:38:03;24.52;;;16.45;;
62423;SDS011;48463;43.604;3.872;2023-06-10T02:40:29;21.50;;;14.20;;
62423;SDS011;48463;43.604;3.872;2023-06-10T02:42:55;19.77;;;14.15;;
62423;SDS011;48463;43.604;3.872;2023-06-10T02:45:21;19.50;;;13.93;;
62423;SDS011;48463;43.604;3.872;2023-06-10T02:47:46;27.23;;;14.82;;
62423;SDS011;48463;43.604;3.872;2023-06-10T02:50:12;20.67;;;13.75;;
62423;SDS011;48463;43.604;3.872;2023-06-10T02:52:37;22.08;;;14.23;;
62423;SDS011;48463;43.604;3.872;2023-06-10T02:55:03;21.27;;;15.38;;
62423;SDS011;48463;43.604;3.872;2023-06-10T02:57:30;25.50;;;15.15;;
62423;SDS011;48463;43.604;3.872;2023-06-10T02:59:55;17.48;;;13.70;;
62423;SDS011;48463;43.604;3.872;2023-06-10T03:02:23;19.83;;;14.20;;
62423;SDS011;48463;43.604;3.872;2023-06-10T03:04:53;17.33;;;13.63;;
62423;SDS011;48463;43.604;3.872;2023-06-10T03:07:22;17.30;;;12.73;;
62423;SDS011;48463;43.604;3.872;2023-06-10T03:09:48;25.48;;;13.27;;
62423;SDS011;48463;43.604;3.872;2023-06-10T03:12:14;15.05;;;11.90;;
62423;SDS011;48463;43.604;3.872;2023-06-10T03:14:41;16.35;;;11.27;;
62423;SDS011;48463;43.604;3.872;2023-06-10T03:17:06;23.40;;;13.32;;
62423;SDS011;48463;43.604;3.872;2023-06-10T03:19:33;17.95;;;13.50;;
62423;SDS011;48463;43.604;3.872;2023-06-10T03:22:12;19.00;;;11.98;;
62423;SDS011;48463;43.604;3.872;2023-06-10T03:24:39;15.50;;;12.05;;
62423;SDS011;48463;43.604;3.872;2023-06-10T03:27:09;22.20;;;12.18;;
62423;SDS011;48463;43.604;3.872;2023-06-10T03:29:36;17.20;;;12.60;;
62423;SDS011;48463;43.604;3.872;2023-06-10T03:32:02;20.02;;;11.98;;
62423;SDS011;48463;43.604;3.872;2023-06-10T03:34:28;17.05;;;11.88;;
62423;SDS011;48463;43.604;3.872;2023-06-10T03:36:55;16.65;;;12.85;;
62423;SDS011;48463;43.604;3.872;2023-06-10T03:39:21;14.23;;;11.23;;
62423;SDS011;48463;43.604;3.872;2023-06-10T03:41:48;17.45;;;13.00;;
62423;SDS011;48463;43.604;3.872;2023-06-10T03:44:14;16.77;;;11.82;;
62423;SDS011;48463;43.604;3.872;2023-06-10T03:46:40;18.08;;;12.27;;
62423;SDS011;48463;43.604;3.872;2023-06-10T03:49:06;13.07;;;11.65;;
62423;SDS011;48463;43.604;3.872;2023-06-10T03:51:32;18.83;;;12.15;;
62423;SDS011;48463;43.604;3.872;2023-06-10T03:53:58;17.80;;;9.70;;
62423;SDS011;48463;43.604;3.872;2023-06-10T03:56:23;16.67;;;10.70;;
62423;SDS011;48463;43.604;3.872;2023-06-10T03:58:50;18.63;;;11.65;;
62423;SDS011;48463;43.604;3.872;2023-06-10T04:01:16;14.07;;;10.43;;
62423;SDS011;48463;43.604;3.872;2023-06-10T04:03:46;15.10;;;11.13;;
62423;SDS011;48463;43.604;3.872;2023-06-10T04:06:14;19.23;;;11.38;;
62423;SDS011;48463;43.604;3.872;2023-06-10T04:08:41;13.32;;;10.88;;
62423;SDS011;48463;43.604;3.872;2023-06-10T04:11:07;12.02;;;8.98;;
62423;SDS011;48463;43.604;3.872;2023-06-10T04:13:33;13.63;;;8.30;;
62423;SDS011;48463;43.604;3.872;2023-06-10T04:15:59;12.05;;;9.68;;
62423;SDS011;48463;43.604;3.872;2023-06-10T04:18:25;15.13;;;9.02;;
62423;SDS011;48463;43.604;3.872;2023-06-10T04:20:51;12.52;;;9.23;;
62423;SDS011;48463;43.604;3.872;2023-06-10T04:23:16;10.52;;;7.00;;
62423;SDS011;48463;43.604;3.872;2023-06-10T04:25:42;11.23;;;6.68;;
62423;SDS011;48463;43.604;3.872;2023-06-10T04:28:08;9.93;;;5.65;;
62423;SDS011;48463;43.604;3.872;2023-06-10T04:30:33;9.70;;;5.90;;
62423;SDS011;48463;43.604;3.872;2023-06-10T04:32:59;10.77;;;6.00;;
62423;SDS011;48463;43.604;3.872;2023-06-10T04:35:25;11.75;;;6.93;;
62423;SDS011;48463;43.604;3.872;2023-06-10T04:37:53;15.23;;;5.68;;
62423;SDS011;48463;43.604;3.872;2023-06-10T04:40:19;9.52;;;6.15;;
62423;SDS011;48463;43.604;3.872;2023-06-10T04:42:45;9.82;;;6.25;;
62423;SDS011;48463;43.604;3.872;2023-06-10T04:45:10;14.35;;;5.85;;
62423;SDS011;48463;43.604;3.872;2023-06-10T04:47:36;9.00;;;5.63;;
62423;SDS011;48463;43.604;3.872;2023-06-10T04:50:02;9.63;;;5.50;;
62423;SDS011;48463;43.604;3.872;2023-06-10T04:52:28;9.60;;;5.32;;
62423;SDS011;48463;43.604;3.872;2023-06-10T04:54:54;11.75;;;6.13;;
62423;SDS011;48463;43.604;3.872;2023-06-10T04:57:20;12.88;;;5.90;;
62423;SDS011;48463;43.604;3.872;2023-06-10T04:59:46;9.80;;;5.97;;
62423;SDS011;48463;43.604;3.872;2023-06-10T05:02:12;8.02;;;5.30;;
62423;SDS011;48463;43.604;3.872;2023-06-10T05:04:38;9.02;;;5.47;;
62423;SDS011;48463;43.604;3.872;2023-06-10T05:07:04;7.95;;;4.60;;
62423;SDS011;48463;43.604;3.872;2023-06-10T05:09:30;8.25;;;5.07;;
62423;SDS011;48463;43.604;3.872;2023-06-10T05:11:57;7.70;;;4.45;;
62423;SDS011;48463;43.604;3.872;2023-06-10T05:14:23;5.95;;;3.95;;
62423;SDS011;48463;43.604;3.872;2023-06-10T05:16:48;8.82;;;4.75;;
62423;SDS011;48463;43.604;3.872;2023-06-10T05:19:14;8.23;;;4.90;;
62423;SDS011;48463;43.604;3.872;2023-06-10T05:21:41;8.18;;;4.72;;
62423;SDS011;48463;43.604;3.872;2023-06-10T05:24:07;11.98;;;5.25;;
62423;SDS011;48463;43.604;3.872;2023-06-10T05:26:33;7.45;;;4.45;;
62423;SDS011;48463;43.604;3.872;2023-06-10T05:29:02;7.82;;;4.65;;
62423;SDS011;48463;43.604;3.872;2023-06-10T05:31:31;8.48;;;4.80;;
62423;SDS011;48463;43.604;3.872;2023-06-10T05:33:57;10.55;;;5.18;;
62423;SDS011;48463;43.604;3.872;2023-06-10T05:36:23;7.35;;;4.13;;
62423;SDS011;48463;43.604;3.872;2023-06-10T05:38:52;7.68;;;4.57;;
62423;SDS011;48463;43.604;3.872;2023-06-10T05:41:18;9.18;;;4.43;;
62423;SDS011;48463;43.604;3.872;2023-06-10T05:43:43;6.82;;;4.50;;
62423;SDS011;48463;43.604;3.872;2023-06-10T05:46:09;8.40;;;4.05;;
62423;SDS011;48463;43.604;3.872;2023-06-10T05:48:37;11.05;;;5.05;;
62423;SDS011;48463;43.604;3.872;2023-06-10T05:51:02;6.63;;;3.72;;
62423;SDS011;48463;43.604;3.872;2023-06-10T05:53:28;6.55;;;4.30;;
62423;SDS011;48463;43.604;3.872;2023-06-10T05:55:54;8.52;;;4.25;;
62423;SDS011;48463;43.604;3.872;2023-06-10T05:58:22;7.95;;;4.32;;
62423;SDS011;48463;43.604;3.872;2023-06-10T06:00:48;5.65;;;3.45;;
62423;SDS011;48463;43.604;3.872;2023-06-10T06:03:14;8.20;;;3.75;;
62423;SDS011;48463;43.604;3.872;2023-06-10T06:05:41;9.60;;;4.32;;
62423;SDS011;48463;43.604;3.872;2023-06-10T06:08:07;7.35;;;4.43;;
62423;SDS011;48463;43.604;3.872;2023-06-10T06:10:33;5.88;;;3.78;;
62423;SDS011;48463;43.604;3.872;2023-06-10T06:12:59;6.07;;;3.30;;
62423;SDS011;48463;43.604;3.872;2023-06-10T06:15:25;6.20;;;3.53;;
62423;SDS011;48463;43.604;3.872;2023-06-10T06:17:51;6.88;;;3.80;;
62423;SDS011;48463;43.604;3.872;2023-06-10T06:20:18;5.97;;;3.53;;
62423;SDS011;48463;43.604;3.872;2023-06-10T06:22:45;4.88;;;2.80;;
62423;SDS011;48463;43.604;3.872;2023-06-10T06:25:12;6.93;;;3.47;;
62423;SDS011;48463;43.604;3.872;2023-06-10T06:27:38;8.50;;;3.25;;
62423;SDS011;48463;43.604;3.872;2023-06-10T06:30:03;7.10;;;3.60;;
62423;SDS011;48463;43.604;3.872;2023-06-10T06:32:30;7.45;;;3.90;;
62423;SDS011;48463;43.604;3.872;2023-06-10T06:34:55;5.43;;;3.53;;
62423;SDS011;48463;43.604;3.872;2023-06-10T06:37:21;7.03;;;4.03;;
62423;SDS011;48463;43.604;3.872;2023-06-10T06:39:52;5.50;;;3.05;;
62423;SDS011;48463;43.604;3.872;2023-06-10T06:42:20;6.25;;;3.50;;
62423;SDS011;48463;43.604;3.872;2023-06-10T06:44:46;8.75;;;3.78;;
62423;SDS011;48463;43.604;3.872;2023-06-10T06:47:12;8.65;;;3.72;;
62423;SDS011;48463;43.604;3.872;2023-06-10T06:49:38;9.75;;;4.13;;
62423;SDS011;48463;43.604;3.872;2023-06-10T06:52:04;5.75;;;3.05;;
62423;SDS011;48463;43.604;3.872;2023-06-10T06:54:30;7.82;;;3.55;;
62423;SDS011;48463;43.604;3.872;2023-06-10T06:56:56;7.38;;;3.70;;
62423;SDS011;48463;43.604;3.872;2023-06-10T06:59:22;5.35;;;3.65;;
62423;SDS011;48463;43.604;3.872;2023-06-10T07:01:48;11.95;;;3.70;;
62423;SDS011;48463;43.604;3.872;2023-06-10T07:04:14;5.82;;;3.65;;
62423;SDS011;48463;43.604;3.872;2023-06-10T07:06:41;6.28;;;3.80;;
62423;SDS011;48463;43.604;3.872;2023-06-10T07:09:09;5.05;;;3.20;;
62423;SDS011;48463;43.604;3.872;2023-06-10T07:11:35;6.15;;;3.55;;
62423;SDS011;48463;43.604;3.872;2023-06-10T07:14:00;7.47;;;4.00;;
62423;SDS011;48463;43.604;3.872;2023-06-10T07:16:26;6.03;;;3.75;;
62423;SDS011;48463;43.604;3.872;2023-06-10T07:18:52;7.70;;;4.00;;
62423;SDS011;48463;43.604;3.872;2023-06-10T07:21:18;9.10;;;4.72;;
62423;SDS011;48463;43.604;3.872;2023-06-10T07:23:44;10.32;;;3.58;;
62423;SDS011;48463;43.604;3.872;2023-06-10T07:26:11;6.95;;;3.85;;
62423;SDS011;48463;43.604;3.872;2023-06-10T07:28:38;9.00;;;4.00;;
62423;SDS011;48463;43.604;3.872;2023-06-10T07:31:05;5.65;;;3.22;;
62423;SDS011;48463;43.604;3.872;2023-06-10T07:33:31;8.00;;;3.95;;
62423;SDS011;48463;43.604;3.872;2023-06-10T07:35:56;8.45;;;3.97;;
62423;SDS011;48463;43.604;3.872;2023-06-10T07:38:22;6.32;;;3.80;;
62423;SDS011;48463;43.604;3.872;2023-06-10T07:40:48;9.02;;;3.92;;
62423;SDS011;48463;43.604;3.872;2023-06-10T07:43:13;5.40;;;3.42;;
62423;SDS011;48463;43.604;3.872;2023-06-10T07:45:39;6.95;;;3.35;;
62423;SDS011;48463;43.604;3.872;2023-06-10T07:48:06;6.85;;;3.92;;
62423;SDS011;48463;43.604;3.872;2023-06-10T07:50:32;9.68;;;4.43;;
62423;SDS011;48463;43.604;3.872;2023-06-10T07:52:58;8.32;;;4.03;;
62423;SDS011;48463;43.604;3.872;2023-06-10T07:55:23;9.25;;;3.97;;
62423;SDS011;48463;43.604;3.872;2023-06-10T07:57:52;7.15;;;3.63;;
62423;SDS011;48463;43.604;3.872;2023-06-10T08:00:18;5.82;;;3.17;;
62423;SDS011;48463;43.604;3.872;2023-06-10T08:02:45;8.05;;;4.50;;
62423;SDS011;48463;43.604;3.872;2023-06-10T08:05:11;7.05;;;3.63;;
62423;SDS011;48463;43.604;3.872;2023-06-10T08:07:37;7.90;;;4.05;;
62423;SDS011;48463;43.604;3.872;2023-06-10T08:10:03;7.80;;;4.05;;
62423;SDS011;48463;43.604;3.872;2023-06-10T08:12:30;8.00;;;4.13;;
62423;SDS011;48463;43.604;3.872;2023-06-10T08:14:56;5.53;;;3.22;;
62423;SDS011;48463;43.604;3.872;2023-06-10T08:17:22;7.50;;;3.42;;
62423;SDS011;48463;43.604;3.872;2023-06-10T08:19:48;12.68;;;9.45;;
62423;SDS011;48463;43.604;3.872;2023-06-10T08:22:14;6.72;;;3.67;;
62423;SDS011;48463;43.604;3.872;2023-06-10T08:24:39;9.20;;;3.63;;
62423;SDS011;48463;43.604;3.872;2023-06-10T08:27:05;8.18;;;3.88;;
62423;SDS011;48463;43.604;3.872;2023-06-10T08:29:31;5.47;;;2.95;;
62423;SDS011;48463;43.604;3.872;2023-06-10T08:31:57;9.18;;;4.20;;
62423;SDS011;48463;43.604;3.872;2023-06-10T08:34:23;5.05;;;3.65;;
62423;SDS011;48463;43.604;3.872;2023-06-10T08:36:49;6.68;;;3.28;;
62423;SDS011;48463;43.604;3.872;2023-06-10T08:39:20;11.57;;;3.78;;
62423;SDS011;48463;43.604;3.872;2023-06-10T08:44:53;7.25;;;3.83;;
62423;SDS011;48463;43.604;3.872;2023-06-10T08:47:24;11.07;;;3.67;;
62423;SDS011;48463;43.604;3.872;2023-06-10T08:49:52;6.05;;;3.78;;
62423;SDS011;48463;43.604;3.872;2023-06-10T08:52:22;6.57;;;3.17;;
62423;SDS011;48463;43.604;3.872;2023-06-10T08:57:32;8.57;;;3.47;;
62423;SDS011;48463;43.604;3.872;2023-06-10T08:59:58;5.00;;;2.92;;
62423;SDS011;48463;43.604;3.872;2023-06-10T09:02:24;5.63;;;3.10;;
62423;SDS011;48463;43.604;3.872;2023-06-10T09:04:50;9.35;;;3.63;;
62423;SDS011;48463;43.604;3.872;2023-06-10T09:07:16;4.93;;;2.55;;
62423;SDS011;48463;43.604;3.872;2023-06-10T09:09:45;7.97;;;3.97;;
62423;SDS011;48463;43.604;3.872;2023-06-10T09:12:12;4.78;;;3.00;;
62423;SDS011;48463;43.604;3.872;2023-06-10T09:14:39;6.00;;;3.70;;
62423;SDS011;48463;43.604;3.872;2023-06-10T09:17:06;5.97;;;3.30;;
62423;SDS011;48463;43.604;3.872;2023-06-10T09:19:32;6.28;;;3.53;;
62423;SDS011;48463;43.604;3.872;2023-06-10T09:21:58;6.90;;;3.75;;
62423;SDS011;48463;43.604;3.872;2023-06-10T09:24:24;10.18;;;4.18;;
62423;SDS011;48463;43.604;3.872;2023-06-10T09:26:52;8.38;;;4.00;;
62423;SDS011;48463;43.604;3.872;2023-06-10T09:29:52;7.25;;;3.97;;
62423;SDS011;48463;43.604;3.872;2023-06-10T09:32:19;13.77;;;5.05;;
62423;SDS011;48463;43.604;3.872;2023-06-10T09:34:46;8.27;;;3.80;;
62423;SDS011;48463;43.604;3.872;2023-06-10T09:37:12;11.50;;;4.30;;
62423;SDS011;48463;43.604;3.872;2023-06-10T09:39:41;9.20;;;5.20;;
62423;SDS011;48463;43.604;3.872;2023-06-10T09:42:18;6.78;;;3.47;;
62423;SDS011;48463;43.604;3.872;2023-06-10T09:44:50;6.45;;;4.20;;
62423;SDS011;48463;43.604;3.872;2023-06-10T09:47:26;10.80;;;3.80;;
62423;SDS011;48463;43.604;3.872;2023-06-10T09:49:55;7.88;;;4.10;;
62423;SDS011;48463;43.604;3.872;2023-06-10T09:52:21;7.30;;;3.80;;
62423;SDS011;48463;43.604;3.872;2023-06-10T09:54:49;14.10;;;4.47;;
62423;SDS011;48463;43.604;3.872;2023-06-10T09:57:18;8.40;;;3.90;;
62423;SDS011;48463;43.604;3.872;2023-06-10T09:59:46;5.78;;;3.15;;
62423;SDS011;48463;43.604;3.872;2023-06-10T10:02:17;7.68;;;3.63;;
62423;SDS011;48463;43.604;3.872;2023-06-10T10:04:44;17.63;;;13.80;;
62423;SDS011;48463;43.604;3.872;2023-06-10T10:07:10;9.15;;;6.50;;
62423;SDS011;48463;43.604;3.872;2023-06-10T10:09:37;16.67;;;7.10;;
62423;SDS011;48463;43.604;3.872;2023-06-10T10:12:04;8.63;;;4.55;;
62423;SDS011;48463;43.604;3.872;2023-06-10T10:14:37;8.45;;;4.43;;
62423;SDS011;48463;43.604;3.872;2023-06-10T10:17:07;6.25;;;3.80;;
62423;SDS011;48463;43.604;3.872;2023-06-10T10:19:37;14.10;;;4.60;;
62423;SDS011;48463;43.604;3.872;2023-06-10T10:22:15;8.45;;;3.75;;
62423;SDS011;48463;43.604;3.872;2023-06-10T10:24:55;7.85;;;4.10;;
62423;SDS011;48463;43.604;3.872;2023-06-10T10:27:51;7.53;;;3.78;;
62423;SDS011;48463;43.604;3.872;2023-06-10T10:30:28;13.38;;;4.45;;
62423;SDS011;48463;43.604;3.872;2023-06-10T10:33:06;13.13;;;5.03;;
62423;SDS011;48463;43.604;3.872;2023-06-10T10:35:47;9.98;;;4.68;;
62423;SDS011;48463;43.604;3.872;2023-06-10T10:38:13;12.43;;;5.38;;
62423;SDS011;48463;43.604;3.872;2023-06-10T10:40:39;21.65;;;6.35;;
62423;SDS011;48463;43.604;3.872;2023-06-10T10:43:08;11.27;;;5.38;;
62423;SDS011;48463;43.604;3.872;2023-06-10T10:45:35;10.40;;;3.85;;
62423;SDS011;48463;43.604;3.872;2023-06-10T10:48:04;11.65;;;5.00;;
62423;SDS011;48463;43.604;3.872;2023-06-10T10:50:35;10.32;;;3.47;;
62423;SDS011;48463;43.604;3.872;2023-06-10T10:53:04;22.13;;;5.45;;
62423;SDS011;48463;43.604;3.872;2023-06-10T10:55:32;24.63;;;7.05;;
62423;SDS011;48463;43.604;3.872;2023-06-10T10:57:59;8.52;;;3.95;;
62423;SDS011;48463;43.604;3.872;2023-06-10T11:00:29;17.75;;;4.95;;
62423;SDS011;48463;43.604;3.872;2023-06-10T11:02:57;7.55;;;3.80;;
62423;SDS011;48463;43.604;3.872;2023-06-10T11:05:46;16.63;;;4.65;;
62423;SDS011;48463;43.604;3.872;2023-06-10T11:08:14;7.35;;;4.05;;
62423;SDS011;48463;43.604;3.872;2023-06-10T11:10:41;13.30;;;5.22;;
62423;SDS011;48463;43.604;3.872;2023-06-10T11:13:18;13.25;;;5.28;;
62423;SDS011;48463;43.604;3.872;2023-06-10T11:15:46;8.15;;;4.15;;
62423;SDS011;48463;43.604;3.872;2023-06-10T11:18:34;19.38;;;4.65;;
62423;SDS011;48463;43.604;3.872;2023-06-10T11:21:04;11.60;;;3.90;;
62423;SDS011;48463;43.604;3.872;2023-06-10T11:26:10;11.52;;;4.72;;
62423;SDS011;48463;43.604;3.872;2023-06-10T11:28:39;9.90;;;4.70;;
62423;SDS011;48463;43.604;3.872;2023-06-10T11:31:18;11.55;;;4.18;;
62423;SDS011;48463;43.604;3.872;2023-06-10T11:33:46;10.07;;;3.78;;
62423;SDS011;48463;43.604;3.872;2023-06-10T11:36:13;10.10;;;4.38;;
62423;SDS011;48463;43.604;3.872;2023-06-10T11:38:43;10.32;;;4.53;;
62423;SDS011;48463;43.604;3.872;2023-06-10T11:41:09;8.98;;;3.95;;
62423;SDS011;48463;43.604;3.872;2023-06-10T11:43:42;9.30;;;3.67;;
62423;SDS011;48463;43.604;3.872;2023-06-10T11:46:15;30.63;;;6.53;;
62423;SDS011;48463;43.604;3.872;2023-06-10T11:49:02;7.72;;;4.47;;
62423;SDS011;48463;43.604;3.872;2023-06-10T11:51:28;7.18;;;3.70;;
62423;SDS011;48463;43.604;3.872;2023-06-10T11:53:58;27.27;;;6.00;;
62423;SDS011;48463;43.604;3.872;2023-06-10T11:56:31;11.95;;;4.22;;
62423;SDS011;48463;43.604;3.872;2023-06-10T12:01:26;19.00;;;5.85;;
62423;SDS011;48463;43.604;3.872;2023-06-10T12:03:56;8.85;;;3.22;;
62423;SDS011;48463;43.604;3.872;2023-06-10T12:06:23;14.30;;;5.20;;
62423;SDS011;48463;43.604;3.872;2023-06-10T12:08:49;10.45;;;4.07;;
62423;SDS011;48463;43.604;3.872;2023-06-10T12:11:15;8.98;;;4.22;;
62423;SDS011;48463;43.604;3.872;2023-06-10T12:13:47;10.20;;;4.00;;
62423;SDS011;48463;43.604;3.872;2023-06-10T12:16:14;9.18;;;4.28;;
62423;SDS011;48463;43.604;3.872;2023-06-10T12:18:41;28.50;;;7.35;;
62423;SDS011;48463;43.604;3.872;2023-06-10T12:21:16;33.65;;;7.28;;
62423;SDS011;48463;43.604;3.872;2023-06-10T12:26:36;17.30;;;5.57;;
62423;SDS011;48463;43.604;3.872;2023-06-10T12:29:18;10.38;;;4.05;;
62423;SDS011;48463;43.604;3.872;2023-06-10T12:34:41;20.42;;;5.10;;
62423;SDS011;48463;43.604;3.872;2023-06-10T12:37:11;19.85;;;5.68;;
62423;SDS011;48463;43.604;3.872;2023-06-10T12:39:38;9.35;;;4.07;;
62423;SDS011;48463;43.604;3.872;2023-06-10T12:42:05;10.63;;;4.60;;
62423;SDS011;48463;43.604;3.872;2023-06-10T12:44:35;8.18;;;4.53;;
62423;SDS011;48463;43.604;3.872;2023-06-10T12:47:09;10.05;;;4.07;;
62423;SDS011;48463;43.604;3.872;2023-06-10T12:49:37;15.77;;;5.07;;
62423;SDS011;48463;43.604;3.872;2023-06-10T12:52:04;11.80;;;5.25;;
62423;SDS011;48463;43.604;3.872;2023-06-10T12:54:30;16.92;;;5.97;;
62423;SDS011;48463;43.604;3.872;2023-06-10T12:56:56;9.80;;;4.50;;
62423;SDS011;48463;43.604;3.872;2023-06-10T12:59:23;11.18;;;4.55;;
62423;SDS011;48463;43.604;3.872;2023-06-10T13:01:50;21.55;;;5.55;;
62423;SDS011;48463;43.604;3.872;2023-06-10T13:04:16;14.90;;;4.70;;
62423;SDS011;48463;43.604;3.872;2023-06-10T13:06:43;9.30;;;4.35;;
62423;SDS011;48463;43.604;3.872;2023-06-10T13:09:09;11.07;;;4.72;;
62423;SDS011;48463;43.604;3.872;2023-06-10T13:11:35;11.90;;;3.75;;
62423;SDS011;48463;43.604;3.872;2023-06-10T13:14:02;8.93;;;4.18;;
62423;SDS011;48463;43.604;3.872;2023-06-10T13:16:30;10.13;;;3.92;;
62423;SDS011;48463;43.604;3.872;2023-06-10T13:18:56;5.88;;;3.75;;
62423;SDS011;48463;43.604;3.872;2023-06-10T13:21:22;9.75;;;4.65;;
62423;SDS011;48463;43.604;3.872;2023-06-10T13:23:49;19.55;;;5.10;;
62423;SDS011;48463;43.604;3.872;2023-06-10T13:26:17;23.90;;;6.68;;
62423;SDS011;48463;43.604;3.872;2023-06-10T13:28:43;17.00;;;6.28;;
62423;SDS011;48463;43.604;3.872;2023-06-10T13:31:09;11.98;;;5.07;;
62423;SDS011;48463;43.604;3.872;2023-06-10T13:33:35;11.07;;;6.20;;
62423;SDS011;48463;43.604;3.872;2023-06-10T13:36:01;11.02;;;4.63;;
62423;SDS011;48463;43.604;3.872;2023-06-10T13:38:27;8.52;;;5.03;;
62423;SDS011;48463;43.604;3.872;2023-06-10T13:40:55;7.32;;;4.82;;
62423;SDS011;48463;43.604;3.872;2023-06-10T13:43:22;8.60;;;5.63;;
62423;SDS011;48463;43.604;3.872;2023-06-10T13:45:49;9.80;;;5.13;;
62423;SDS011;48463;43.604;3.872;2023-06-10T13:48:20;7.85;;;4.70;;
62423;SDS011;48463;43.604;3.872;2023-06-10T13:50:46;7.60;;;4.82;;
62423;SDS011;48463;43.604;3.872;2023-06-10T13:53:12;8.68;;;4.85;;
62423;SDS011;48463;43.604;3.872;2023-06-10T13:55:39;12.98;;;5.40;;
62423;SDS011;48463;43.604;3.872;2023-06-10T13:58:04;9.68;;;5.95;;
62423;SDS011;48463;43.604;3.872;2023-06-10T14:00:30;8.60;;;5.90;;
62423;SDS011;48463;43.604;3.872;2023-06-10T14:02:56;9.02;;;4.90;;
62423;SDS011;48463;43.604;3.872;2023-06-10T14:05:22;9.60;;;4.97;;
62423;SDS011;48463;43.604;3.872;2023-06-10T14:07:48;7.35;;;4.93;;
62423;SDS011;48463;43.604;3.872;2023-06-10T14:10:13;11.13;;;6.13;;
62423;SDS011;48463;43.604;3.872;2023-06-10T14:12:41;10.25;;;5.88;;
62423;SDS011;48463;43.604;3.872;2023-06-10T14:15:07;11.68;;;5.72;;
62423;SDS011;48463;43.604;3.872;2023-06-10T14:17:33;14.82;;;6.25;;
62423;SDS011;48463;43.604;3.872;2023-06-10T14:19:58;15.35;;;5.65;;
62423;SDS011;48463;43.604;3.872;2023-06-10T14:22:24;9.63;;;4.97;;
62423;SDS011;48463;43.604;3.872;2023-06-10T14:24:50;9.10;;;4.80;;
62423;SDS011;48463;43.604;3.872;2023-06-10T14:27:15;10.35;;;5.75;;
62423;SDS011;48463;43.604;3.872;2023-06-10T14:29:41;11.45;;;5.55;;
62423;SDS011;48463;43.604;3.872;2023-06-10T14:32:07;10.52;;;6.00;;
62423;SDS011;48463;43.604;3.872;2023-06-10T14:34:32;7.55;;;4.05;;
62423;SDS011;48463;43.604;3.872;2023-06-10T14:37:01;10.60;;;5.35;;
62423;SDS011;48463;43.604;3.872;2023-06-10T14:39:29;10.73;;;5.18;;
62423;SDS011;48463;43.604;3.872;2023-06-10T14:41:54;17.75;;;5.05;;
62423;SDS011;48463;43.604;3.872;2023-06-10T14:44:20;9.23;;;5.15;;
62423;SDS011;48463;43.604;3.872;2023-06-10T14:46:46;8.23;;;5.05;;
62423;SDS011;48463;43.604;3.872;2023-06-10T14:49:12;10.07;;;4.95;;
62423;SDS011;48463;43.604;3.872;2023-06-10T14:51:38;7.28;;;4.82;;
62423;SDS011;48463;43.604;3.872;2023-06-10T14:54:06;9.23;;;4.78;;
62423;SDS011;48463;43.604;3.872;2023-06-10T14:56:32;7.55;;;4.50;;
62423;SDS011;48463;43.604;3.872;2023-06-10T14:58:58;8.27;;;5.05;;
62423;SDS011;48463;43.604;3.872;2023-06-10T15:01:24;9.20;;;4.70;;